Time;durP1;ratioP1;P1;durP2;ratioP2;P2;SDS_P1;SDS_P2;PMS_P1;PMS_P2;Temp;Humidity;BMP_temperature;BMP_pressure;BME280_temperature;BME280_humidity;BME280_pressure;Samples;Min_cycle;Max_cycle;Signal;HPM_P1;HPM_P2
2022/07/29 00:02:02;;;;;;;7.77;1.77;;;;;;;18.78;49.03;100269.16;5112455;28;19971;-77
2022/07/29 00:04:27;;;;;;;;;;;;;;;18.68;49.19;100269.13;5113000;28;20051;-78
2022/07/29 00:06:52;;;;;;;2.83;0.93;;;;;;;18.65;49.49;100267.13;5112833;28;20370;-78
2022/07/29 00:09:18;;;;;;;;;;;;;;;18.68;49.79;100264.38;5112862;28;20033;-78
2022/07/29 00:11:43;;;;;;;2.30;1.00;;;;;;;18.58;49.70;100260.34;5112736;28;19912;-78
2022/07/29 00:14:08;;;;;;;;;;;;;;;18.58;49.66;100260.34;5113115;28;20039;-78
2022/07/29 00:16:34;;;;;;;1.73;0.80;;;;;;;18.63;49.58;100251.72;5112907;28;19918;-78
2022/07/29 00:18:59;;;;;;;;;;;;;;;18.58;49.79;100243.00;5112697;28;20768;-79
2022/07/29 00:21:25;;;;;;;1.77;1.10;;;;;;;18.57;49.86;100246.94;5112527;28;19931;-79
2022/07/29 00:23:50;;;;;;;;;;;;;;;18.49;49.94;100239.81;5113033;28;20097;-78
2022/07/29 00:26:15;;;;;;;2.80;0.90;;;;;;;18.46;50.05;100235.06;5112530;28;20415;-78
2022/07/29 00:28:40;;;;;;;;;;;;;;;18.39;50.40;100230.31;5113210;28;20047;-78
2022/07/29 00:31:06;;;;;;;1.70;0.70;;;;;;;18.36;50.52;100224.78;5112351;28;19990;-80
2022/07/29 00:33:31;;;;;;;;;;;;;;;18.34;50.45;100230.69;5112845;28;20341;-79
2022/07/29 00:35:56;;;;;;;2.70;0.87;;;;;;;18.30;50.58;100221.56;5112200;28;19961;-79
2022/07/29 00:38:22;;;;;;;;;;;;;;;18.32;50.53;100217.28;5112807;28;20024;-79
2022/07/29 00:40:48;;;;;;;4.50;0.90;;;;;;;18.36;50.44;100216.50;5112003;28;20259;-79
2022/07/29 00:43:14;;;;;;;;;;;;;;;18.36;50.39;100211.78;5114353;28;20036;-79
2022/07/29 00:45:40;;;;;;;1.35;0.60;;;;;;;18.36;50.43;100203.50;5115959;28;19914;-79
2022/07/29 00:48:08;;;;;;;2.83;1.20;;;;;;;18.32;50.53;100202.72;5115748;28;20434;-80
2022/07/29 00:50:34;;;;;;;2.58;0.70;;;;;;;18.35;50.62;100201.94;5116097;28;20038;-80
2022/07/29 00:53:00;;;;;;;4.07;1.15;;;;;;;18.40;50.61;100193.28;5114637;28;20382;-79
2022/07/29 00:55:26;;;;;;;2.63;0.75;;;;;;;18.30;50.83;100200.31;5115825;28;20047;-80
2022/07/29 00:57:52;;;;;;;;;;;;;;;18.31;50.84;100190.91;5115975;28;20457;-79
2022/07/29 01:00:21;;;;;;;2.15;1.20;;;;;;;18.36;50.77;100191.69;5115691;28;19916;-79
2022/07/29 01:02:48;;;;;;;2.35;0.80;;;;;;;18.30;50.72;100188.50;5115346;28;20029;-79
2022/07/29 01:05:16;;;;;;;3.38;1.10;;;;;;;18.27;50.91;100179.03;5115337;28;20346;-80
2022/07/29 01:07:41;;;;;;;2.38;0.73;;;;;;;18.19;51.23;100182.94;5115628;28;20032;-79
2022/07/29 01:10:08;;;;;;;;;;;;;;;18.13;51.23;100181.69;5115983;28;20101;-79
2022/07/29 01:12:35;;;;;;;1.70;0.75;;;;;;;18.11;51.62;100175.78;5115203;28;20411;-79
2022/07/29 01:15:04;;;;;;;2.83;0.90;;;;;;;18.11;51.49;100172.25;5115543;28;20125;-79
2022/07/29 01:17:44;;;;;;;2.33;0.80;;;;;;;18.08;51.60;100167.50;5113965;28;20039;-79
2022/07/29 01:20:15;;;;;;;2.28;0.77;;;;;;;18.08;51.57;100171.06;5115379;28;20037;-80
2022/07/29 01:23:10;;;;;;;3.53;1.20;;;;;;;17.98;51.84;100161.56;5115394;28;20057;-80
2022/07/29 01:25:38;;;;;;;2.67;0.80;;;;;;;18.09;51.47;100161.59;5115134;28;20035;-78
2022/07/29 01:28:09;;;;;;;2.83;0.80;;;;;;;18.07;51.60;100163.97;5115229;28;20415;-79
2022/07/29 01:30:38;;;;;;;2.15;0.88;;;;;;;17.97;52.13;100154.47;5114874;28;20039;-80
2022/07/29 01:33:48;;;;;;;1.83;0.82;;;;;;;17.91;52.05;100161.50;5115215;27;20055;-80
2022/07/29 01:36:10;;;;;;;5.35;0.90;;;;;;;17.93;52.10;100161.09;5114804;28;20034;-79
2022/07/29 01:38:40;;;;;;;2.53;1.00;;;;;;;17.83;52.47;100162.63;5114727;28;20028;-80
2022/07/29 01:41:12;;;;;;;2.08;0.70;;;;;;;17.88;52.43;100158.72;5113724;28;20057;-80
2022/07/29 01:43:53;;;;;;;1.92;0.93;;;;;;;17.88;52.16;100158.72;5114720;28;20046;-79
2022/07/29 01:46:37;;;;;;;2.20;0.57;;;;;;;18.13;51.99;100167.13;5115117;28;20103;-79
2022/07/29 01:49:09;;;;;;;2.30;0.70;;;;;;;18.07;51.91;100165.94;5113631;28;20479;-79
2022/07/29 01:51:43;;;;;;;2.55;0.90;;;;;;;17.99;52.03;100156.84;5114799;28;20110;-79
2022/07/29 01:54:16;;;;;;;12.50;2.20;;;;;;;17.91;52.20;100157.94;5114374;28;20035;-79
2022/07/29 01:56:45;;;;;;;2.25;0.80;;;;;;;17.85;52.62;100145.72;5114688;28;20027;-79
2022/07/29 01:59:11;;;;;;;3.25;1.25;;;;;;;17.86;52.37;100131.56;5114267;28;20038;-79
2022/07/29 02:01:40;;;;;;;1.30;0.60;;;;;;;17.90;52.41;100137.09;5114354;28;20493;-79
2022/07/29 02:04:09;;;;;;;1.83;0.70;;;;;;;17.93;52.33;100144.56;5114473;28;20516;-79
2022/07/29 02:06:37;;;;;;;1.98;0.85;;;;;;;17.90;52.49;100145.34;5114194;28;20529;-80
2022/07/29 02:09:05;;;;;;;3.20;0.70;;;;;;;17.86;52.73;100144.53;5114075;28;20470;-80
2022/07/29 02:11:34;;;;;;;2.28;0.90;;;;;;;17.94;52.55;100143.41;5114187;28;20031;-79
2022/07/29 02:14:01;;;;;;;1.73;0.68;;;;;;;17.86;52.69;100150.06;5114103;28;20424;-79
2022/07/29 02:16:30;;;;;;;3.95;1.20;;;;;;;17.91;52.58;100146.94;5114278;28;20028;-79
2022/07/29 02:18:58;;;;;;;2.72;0.70;;;;;;;17.95;52.46;100136.72;5113727;28;20083;-79
2022/07/29 02:21:26;;;;;;;1.88;0.88;;;;;;;17.86;52.93;100133.53;5114312;28;20047;-79
2022/07/29 02:23:54;;;;;;;2.13;0.75;;;;;;;17.78;52.99;100134.63;5114135;28;20031;-79
2022/07/29 02:26:22;;;;;;;3.05;0.80;;;;;;;17.73;53.06;100133.03;5114059;28;20058;-79
2022/07/29 02:28:51;;;;;;;2.53;0.85;;;;;;;17.71;53.19;100125.16;5114025;28;20085;-79
2022/07/29 02:31:20;;;;;;;2.72;0.95;;;;;;;17.73;53.14;100131.06;5113810;28;20055;-79
2022/07/29 02:33:46;;;;;;;3.08;1.00;;;;;;;17.79;53.03;100127.94;5113468;28;20467;-80
2022/07/29 02:36:13;;;;;;;2.30;1.05;;;;;;;17.82;53.01;100124.44;5113696;28;20066;-79
2022/07/29 02:38:51;;;;;;;2.25;0.68;;;;;;;17.82;53.05;100124.44;5113487;28;20038;-80
2022/07/29 02:41:20;;;;;;;3.67;0.80;;;;;;;17.85;53.10;100123.69;5113753;28;20073;-79
2022/07/29 02:43:50;;;;;;;2.70;0.98;;;;;;;17.91;52.88;100127.66;5113416;28;20039;-79
2022/07/29 02:46:20;;;;;;;4.25;0.82;;;;;;;17.85;52.67;100132.72;5113458;28;20096;-80
2022/07/29 02:49:09;;;;;;;2.95;0.90;;;;;;;17.88;52.83;100134.72;5113691;28;20428;-79
2022/07/29 02:51:43;;;;;;;2.30;0.70;;;;;;;17.82;53.06;100135.47;5113482;28;20042;-80
2022/07/29 02:54:11;;;;;;;4.93;0.80;;;;;;;17.85;52.99;100131.94;5113251;28;20490;-79
2022/07/29 02:56:39;;;;;;;3.08;1.00;;;;;;;17.76;53.41;100132.25;5113441;28;20110;-79
2022/07/29 02:59:10;;;;;;;3.00;0.85;;;;;;;17.71;53.43;100135.38;5113144;28;20028;-80
2022/07/29 03:01:39;;;;;;;3.13;1.00;;;;;;;17.71;53.54;100141.69;5113261;28;20479;-80
2022/07/29 03:04:06;;;;;;;2.92;0.75;;;;;;;17.61;53.77;100136.84;5113016;28;20077;-79
2022/07/29 03:06:34;;;;;;;2.70;0.70;;;;;;;17.55;54.02;100141.13;5112478;28;20046;-79
2022/07/29 03:09:00;;;;;;;3.45;0.85;;;;;;;17.34;54.62;100165.72;5112958;28;20493;-77
2022/07/29 03:11:26;;;;;;;;;;;;;;;17.19;54.98;100178.53;5113823;28;20067;-78
2022/07/29 03:13:52;;;;;;;3.10;0.80;;;;;;;17.08;55.46;100186.69;5112975;28;19911;-76
2022/07/29 03:16:19;;;;;;;2.20;0.85;;;;;;;17.10;55.52;100175.28;5112879;28;20482;-77
2022/07/29 03:18:45;;;;;;;2.33;0.90;;;;;;;17.08;55.67;100166.63;5113139;28;20047;-78
2022/07/29 03:21:11;;;;;;;3.33;1.00;;;;;;;17.06;55.89;100161.50;5111833;28;20024;-78
2022/07/29 03:23:36;;;;;;;;;;;;;;;16.98;56.90;100172.81;5113485;28;20469;-77
2022/07/29 03:26:02;;;;;;;2.47;0.73;;;;;;;16.90;58.00;100179.41;5113187;28;19907;-76
2022/07/29 03:28:27;;;;;;;;;;;;;;;16.75;59.24;100179.22;5113443;28;20078;-77
2022/07/29 03:30:53;;;;;;;4.03;0.80;;;;;;;16.78;59.45;100175.72;5113054;28;20023;-77
2022/07/29 03:33:18;;;;;;;;;;;;;;;16.71;59.11;100148.16;5113158;28;20019;-77
2022/07/29 03:35:43;;;;;;;2.20;0.80;;;;;;;16.71;59.81;100152.88;5112979;28;20113;-78
2022/07/29 03:38:08;;;;;;;;;;;;;;;16.67;59.81;100160.28;5113355;28;20782;-78
2022/07/29 03:40:40;;;;;;;2.93;0.77;;;;;;;16.59;60.42;100175.06;5112715;28;19923;-78
2022/07/29 03:43:09;;;;;;;3.80;1.00;;;;;;;16.57;60.02;100185.66;5112602;28;20027;-77
2022/07/29 03:45:36;;;;;;;2.88;0.73;;;;;;;16.57;60.14;100174.66;5112600;28;20035;-77
2022/07/29 03:48:06;;;;;;;2.25;0.80;;;;;;;16.55;59.67;100181.31;5113157;28;20019;-79
2022/07/29 03:50:33;;;;;;;3.75;1.13;;;;;;;16.46;60.01;100183.56;5112462;28;20470;-75
2022/07/29 03:52:59;;;;;;;2.42;1.10;;;;;;;16.37;60.22;100195.97;5112700;28;20042;-75
2022/07/29 03:55:25;;;;;;;;;;;;;;;16.35;60.63;100204.59;5113375;28;20049;-75
2022/07/29 03:57:51;;;;;;;3.08;0.90;;;;;;;16.34;60.76;100200.28;5112530;28;19908;-77
2022/07/29 04:00:16;;;;;;;;;;;;;;;16.32;60.54;100204.56;5111708;28;20520;-77
2022/07/29 04:02:47;;;;;;;2.33;0.88;;;;;;;16.32;60.81;100197.09;5111294;28;19911;-76
2022/07/29 04:05:14;;;;;;;3.50;1.00;;;;;;;16.31;60.74;100228.50;5112345;28;20106;-76
2022/07/29 04:07:40;;;;;;;3.72;1.08;;;;;;;16.47;60.36;100233.81;5111149;28;20482;-76
2022/07/29 04:10:07;;;;;;;2.85;1.13;;;;;;;16.44;60.18;100229.84;5112384;28;20136;-76
2022/07/29 04:12:32;;;;;;;1.85;0.70;;;;;;;16.43;60.38;100231.00;5112551;28;20027;-77
2022/07/29 04:14:57;;;;;;;2.00;0.70;;;;;;;16.32;61.01;100234.78;5112483;28;20031;-77
2022/07/29 04:17:22;;;;;;;2.10;0.80;;;;;;;16.26;60.89;100237.03;5112720;28;20257;-77
2022/07/29 04:19:48;;;;;;;2.43;0.87;;;;;;;16.19;61.07;100236.94;5116056;28;20343;-76
2022/07/29 04:22:13;;;;;;;3.20;0.65;;;;;;;16.14;61.11;100232.56;5116410;28;20254;-77
2022/07/29 04:24:39;;;;;;;2.17;1.38;;;;;;;16.13;61.16;100230.19;5116163;28;20385;-77
2022/07/29 04:27:04;;;;;;;;;;;;;;;16.16;61.10;100223.94;5116425;28;20047;-77
2022/07/29 04:29:29;;;;;;;1.57;0.80;;;;;;;16.10;61.19;100228.16;5116266;28;19908;-77
2022/07/29 04:31:54;;;;;;;;;;;;;;;16.10;61.30;100217.97;5116428;28;20028;-77
2022/07/29 04:34:20;;;;;;;1.83;0.97;;;;;;;16.12;61.17;100223.06;5116057;28;20355;-77
2022/07/29 04:36:45;;;;;;;;;;;;;;;16.11;61.23;100227.00;5116624;28;20070;-78
2022/07/29 04:39:10;;;;;;;2.57;0.70;;;;;;;16.08;61.38;100225.78;5115672;28;19912;-76
2022/07/29 04:41:36;;;;;;;;;;;;;;;16.06;61.49;100225.34;5116331;28;20027;-76
2022/07/29 04:44:04;;;;;;;5.13;1.02;;;;;;;16.00;61.79;100229.59;5115672;28;19952;-77
2022/07/29 04:46:30;;;;;;;1.85;0.90;;;;;;;15.97;61.75;100215.81;5116246;28;20140;-77
2022/07/29 04:48:55;;;;;;;2.22;0.85;;;;;;;15.99;61.58;100214.28;5114526;28;20459;-77
2022/07/29 04:51:20;;;;;;;;;;;;;;;15.98;61.64;100215.44;5116062;28;20035;-77
2022/07/29 04:53:46;;;;;;;2.30;1.00;;;;;;;16.16;61.47;100207.47;5115580;28;19911;-78
2022/07/29 04:56:11;;;;;;;;;;;;;;;16.28;60.52;100209.97;5115829;28;20031;-76
2022/07/29 04:58:37;;;;;;;3.67;0.88;;;;;;;16.14;60.72;100204.31;5115534;28;19912;-77
2022/07/29 05:01:02;;;;;;;;;;;;;;;16.13;60.69;100199.97;5114593;28;20055;-76
2022/07/29 05:03:27;;;;;;;2.53;1.15;;;;;;;16.14;61.11;100196.06;5115182;28;19911;-76
2022/07/29 05:05:53;;;;;;;2.08;0.90;;;;;;;16.04;60.86;100202.16;5115354;28;20462;-76
2022/07/29 05:08:18;;;;;;;;;;;;;;;16.25;60.40;100199.72;5115542;28;20055;-76
2022/07/29 05:10:43;;;;;;;4.40;1.13;;;;;;;16.15;60.73;100195.69;5114915;28;19918;-77
2022/07/29 05:13:09;;;;;;;;;;;;;;;16.31;60.02;100201.03;5115166;28;20023;-76
2022/07/29 05:15:35;;;;;;;4.53;1.67;;;;;;;16.51;59.98;100199.72;5114701;28;19919;-77
2022/07/29 05:18:00;;;;;;;;;;;;;;;16.59;59.51;100216.28;5115546;28;20047;-76
2022/07/29 05:20:28;;;;;;;2.28;1.00;;;;;;;16.75;59.00;100219.69;5115237;28;19965;-78
2022/07/29 05:22:57;;;;;;;2.72;0.70;;;;;;;16.97;58.56;100218.00;5115247;28;20019;-77
2022/07/29 05:25:23;;;;;;;2.00;0.80;;;;;;;16.78;58.45;100219.72;5115359;28;20105;-77
2022/07/29 05:27:48;;;;;;;3.78;1.20;;;;;;;16.81;58.43;100229.19;5114874;28;20462;-77
2022/07/29 05:30:13;;;;;;;3.08;0.90;;;;;;;16.58;59.10;100222.97;5114238;28;20032;-78
2022/07/29 05:32:39;;;;;;;;;;;;;;;16.51;59.48;100226.41;5115436;28;20089;-77
2022/07/29 05:35:05;;;;;;;2.55;1.00;;;;;;;16.45;60.00;100223.19;5114903;28;19937;-77
2022/07/29 05:37:30;;;;;;;;;;;;;;;16.46;60.43;100218.47;5115236;28;20113;-77
2022/07/29 05:39:56;;;;;;;3.30;0.90;;;;;;;16.43;62.61;100217.25;5114382;28;19935;-78
2022/07/29 05:42:21;;;;;;;;;;;;;;;16.28;64.04;100206.44;5115520;28;20374;-77
2022/07/29 05:44:47;;;;;;;4.40;0.90;;;;;;;16.16;65.25;100201.97;5114299;28;20394;-78
2022/07/29 05:47:12;;;;;;;;;;;;;;;16.10;65.73;100193.22;5115150;28;20023;-77
2022/07/29 05:49:38;;;;;;;3.40;1.02;;;;;;;16.14;66.64;100190.56;5114519;28;20363;-78
2022/07/29 05:52:04;;;;;;;2.83;1.17;;;;;;;16.08;65.25;100200.25;5114582;28;20031;-77
2022/07/29 05:54:29;;;;;;;;;;;;;;;16.25;65.15;100210.72;5114870;28;20036;-78
2022/07/29 05:56:54;;;;;;;2.27;0.87;;;;;;;16.31;65.75;100213.97;5113987;28;19912;-78
2022/07/29 05:59:19;;;;;;;;;;;;;;;16.30;66.09;100217.88;5115021;28;20031;-78
2022/07/29 06:01:45;;;;;;;4.63;1.30;;;;;;;16.70;63.29;100201.56;5114609;28;19915;-79
2022/07/29 06:04:10;;;;;;;;;;;;;;;16.63;63.38;100200.63;5113528;28;20031;-77
2022/07/29 06:06:35;;;;;;;6.47;1.10;;;;;;;16.57;63.65;100199.38;5114709;28;20358;-78
2022/07/29 06:09:02;;;;;;;4.80;1.02;;;;;;;16.33;64.41;100195.94;5114579;28;20262;-78
2022/07/29 06:11:27;;;;;;;3.03;0.93;;;;;;;16.29;64.79;100189.56;5114461;28;20526;-78
2022/07/29 06:13:53;;;;;;;5.40;1.20;;;;;;;16.21;65.31;100180.47;5114460;28;20104;-78
2022/07/29 06:16:18;;;;;;;;;;;;;;;16.11;65.51;100167.34;5114584;28;20035;-77
2022/07/29 06:18:43;;;;;;;3.80;0.90;;;;;;;16.03;66.02;100157.44;5114322;28;19955;-78
2022/07/29 06:21:12;;;;;;;2.70;1.27;;;;;;;16.08;66.31;100161.81;5114235;28;20027;-78
2022/07/29 06:24:03;;;;;;;3.38;1.02;;;;;;;16.19;66.34;100179.25;5113952;28;20043;-80
2022/07/29 06:26:28;;;;;;;3.38;1.23;;;;;;;16.31;65.77;100201.03;5097863;28;20059;-79
2022/07/29 06:28:54;;;;;;;2.80;1.10;;;;;;;16.23;66.05;100221.28;5112795;28;20035;-79
2022/07/29 06:31:19;;;;;;;2.93;1.30;;;;;;;16.32;66.48;100221.84;5114182;28;20256;-79
2022/07/29 06:33:44;;;;;;;;;;;;;;;16.37;65.44;100217.97;5114342;28;20035;-79
2022/07/29 06:36:10;;;;;;;3.53;1.20;;;;;;;16.50;66.31;100217.38;5113843;28;19937;-79
2022/07/29 06:38:35;;;;;;;4.40;1.20;;;;;;;16.59;64.11;100219.84;5114126;28;20268;-78
2022/07/29 06:41:05;;;;;;;4.10;1.17;;;;;;;16.70;65.43;100223.56;5112065;28;20281;-79
2022/07/29 06:43:37;;;;;;;14.77;1.92;;;;;;;16.70;64.34;100225.50;5113807;28;20124;-79
2022/07/29 06:46:07;;;;;;;3.58;1.23;;;;;;;16.60;64.31;100223.38;5113787;28;20034;-79
2022/07/29 06:48:34;;;;;;;2.95;0.88;;;;;;;16.72;64.54;100223.97;5113577;27;20028;-79
2022/07/29 06:51:00;;;;;;;3.83;1.23;;;;;;;16.78;63.98;100224.44;5113875;28;20027;-79
2022/07/29 06:53:27;;;;;;;3.10;1.20;;;;;;;16.80;63.23;100230.38;5113842;28;20070;-80
2022/07/29 06:55:52;;;;;;;3.83;1.67;;;;;;;16.75;63.75;100231.47;5113793;28;20028;-80
2022/07/29 06:58:20;;;;;;;4.05;1.50;;;;;;;16.64;63.88;100232.47;5113375;28;20436;-79
2022/07/29 07:00:47;;;;;;;3.08;1.50;;;;;;;16.59;64.12;100230.81;5113429;28;20111;-78
2022/07/29 07:03:14;;;;;;;7.03;1.35;;;;;;;16.46;64.61;100233.03;5112383;28;20035;-78
2022/07/29 07:05:39;;;;;;;3.97;1.65;;;;;;;16.52;65.30;100226.03;5111782;28;20027;-80
2022/07/29 07:08:05;;;;;;;4.70;1.70;;;;;;;16.58;65.05;100228.47;5113143;28;20077;-78
2022/07/29 07:10:30;;;;;;;4.53;1.48;;;;;;;16.62;65.30;100232.03;5111610;28;20447;-75
2022/07/29 07:12:56;;;;;;;;;;;;;;;16.75;64.83;100239.72;5113250;28;20375;-75
2022/07/29 07:15:21;;;;;;;3.53;1.50;;;;;;;16.86;64.43;100231.63;5112938;28;19911;-74
2022/07/29 07:17:48;;;;;;;3.70;1.20;;;;;;;16.92;63.53;100237.56;5112742;28;20324;-74
2022/07/29 07:20:14;;;;;;;2.50;1.00;;;;;;;16.82;63.11;100247.28;5113004;28;20459;-74
2022/07/29 07:22:40;;;;;;;;;;;;;;;16.74;63.23;100245.59;5113379;28;20458;-74
2022/07/29 07:25:06;;;;;;;2.37;1.00;;;;;;;16.65;63.83;100256.06;5112436;28;19919;-74
2022/07/29 07:27:31;;;;;;;3.72;1.52;;;;;;;16.81;64.19;100270.44;5112724;28;20273;-74
2022/07/29 07:29:57;;;;;;;2.63;1.00;;;;;;;16.79;64.74;100275.50;5113039;28;20036;-74
2022/07/29 07:32:22;;;;;;;6.32;1.45;;;;;;;16.82;64.68;100274.78;5112901;28;20044;-75
2022/07/29 07:34:47;;;;;;;;;;;;;;;16.89;64.73;100263.06;5113231;28;20035;-75
2022/07/29 07:37:14;;;;;;;8.20;1.33;;;;;;;16.92;64.41;100256.81;5112891;28;19991;-72
2022/07/29 07:39:39;;;;;;;3.72;1.38;;;;;;;17.11;64.20;100254.69;5112458;28;20030;-73
2022/07/29 07:42:05;;;;;;;2.88;1.00;;;;;;;17.20;63.56;100261.88;5111241;28;20035;-74
2022/07/29 07:44:30;;;;;;;;;;;;;;;17.18;63.38;100266.97;5111554;28;20160;-74
2022/07/29 07:46:55;;;;;;;2.93;0.93;;;;;;;17.25;64.22;100270.59;5112070;28;20420;-73
2022/07/29 07:49:21;;;;;;;2.90;1.30;;;;;;;17.34;63.68;100273.06;5112113;28;20693;-74
2022/07/29 07:51:46;;;;;;;3.08;1.20;;;;;;;17.38;63.65;100271.13;5113174;28;20265;-74
2022/07/29 07:54:11;;;;;;;4.97;1.27;;;;;;;17.28;64.05;100269.03;5116716;28;20023;-73
2022/07/29 07:56:37;;;;;;;3.40;1.20;;;;;;;17.25;64.72;100267.84;5115253;28;20141;-74
2022/07/29 07:59:02;;;;;;;;;;;;;;;17.49;64.76;100282.25;5116877;28;20027;-74
2022/07/29 08:01:27;;;;;;;2.87;1.00;;;;;;;17.58;63.68;100280.78;5116738;28;19922;-74
2022/07/29 08:03:52;;;;;;;;;;;;;;;17.58;63.67;100280.78;5116713;28;20035;-74
2022/07/29 08:06:18;;;;;;;4.03;1.57;;;;;;;17.74;62.63;100275.84;5116630;28;20056;-74
2022/07/29 08:08:43;;;;;;;;;;;;;;;17.73;62.93;100277.03;5116372;28;20249;-74
2022/07/29 08:11:08;;;;;;;3.33;1.35;;;;;;;17.63;62.92;100277.66;5116148;28;19994;-75
2022/07/29 08:13:34;;;;;;;;;;;;;;;17.66;62.87;100287.16;5116634;28;20136;-74
2022/07/29 08:16:01;;;;;;;3.33;1.35;;;;;;;17.79;63.18;100291.22;5115951;28;19911;-74
2022/07/29 08:18:30;;;;;;;4.45;2.08;;;;;;;17.69;62.89;100287.22;5116170;28;20127;-74
2022/07/29 08:20:56;;;;;;;4.43;1.77;;;;;;;17.67;62.49;100278.50;5115788;28;20027;-74
2022/07/29 08:23:22;;;;;;;;;;;;;;;17.82;62.60;100273.19;5116583;28;20387;-74
2022/07/29 08:25:48;;;;;;;3.08;1.33;;;;;;;17.65;62.84;100280.88;5116402;28;19912;-74
2022/07/29 08:28:14;;;;;;;;;;;;;;;17.61;63.30;100274.50;5117162;28;20080;-74
2022/07/29 08:30:40;;;;;;;4.38;1.48;;;;;;;17.66;64.25;100276.94;5116270;28;19907;-74
2022/07/29 08:33:05;;;;;;;;;;;;;;;17.49;65.90;100272.03;5116984;28;20042;-74
2022/07/29 08:35:30;;;;;;;3.80;1.65;;;;;;;17.47;66.39;100268.06;5116242;28;19958;-74
2022/07/29 08:37:56;;;;;;;;;;;;;;;17.36;66.30;100273.47;5116890;28;20463;-74
2022/07/29 08:40:23;;;;;;;4.97;1.58;;;;;;;17.29;66.98;100267.88;5114747;28;19919;-74
2022/07/29 08:42:49;;;;;;;4.95;1.70;;;;;;;17.32;66.79;100267.94;5116459;28;20039;-76
2022/07/29 08:45:15;;;;;;;;;;;;;;;17.39;67.09;100272.72;5116988;28;20039;-75
2022/07/29 08:47:40;;;;;;;5.05;1.60;;;;;;;17.29;66.85;100276.91;5116237;28;19908;-74
2022/07/29 08:50:06;;;;;;;;;;;;;;;17.41;68.33;100276.66;5116815;28;20394;-75
2022/07/29 08:52:35;;;;;;;4.40;1.83;;;;;;;17.31;67.16;100280.09;5115954;28;19907;-75
2022/07/29 08:55:01;;;;;;;7.25;1.80;;;;;;;17.19;67.47;100283.09;5115407;28;20031;-75
2022/07/29 08:57:27;;;;;;;;;;;;;;;17.20;67.66;100286.66;5116243;28;20035;-75
2022/07/29 08:59:54;;;;;;;3.60;1.50;;;;;;;17.18;67.28;100283.47;5115140;28;19980;-75
2022/07/29 09:02:21;;;;;;;5.00;1.65;;;;;;;17.11;68.07;100284.16;5113922;28;20034;-76
2022/07/29 09:04:47;;;;;;;3.70;1.77;;;;;;;17.14;66.88;100289.72;5114283;28;20511;-74
2022/07/29 09:07:15;;;;;;;;;;;;;;;17.22;66.91;100289.81;5115621;28;20059;-74
2022/07/29 09:09:42;;;;;;;4.60;1.73;;;;;;;17.19;67.48;100285.84;5115179;28;19995;-74
2022/07/29 09:12:08;;;;;;;5.03;1.98;;;;;;;17.25;68.26;100286.31;5115451;28;20424;-74
2022/07/29 09:14:33;;;;;;;;;;;;;;;17.44;68.14;100295.16;5115529;28;20031;-73
2022/07/29 09:16:58;;;;;;;4.28;1.75;;;;;;;17.44;67.26;100303.44;5113962;28;20423;-74
2022/07/29 09:19:24;;;;;;;;;;;;;;;17.36;68.95;100296.28;5114752;28;20048;-74
2022/07/29 09:21:58;;;;;;;4.47;1.70;;;;;;;17.37;68.78;100281.34;5115156;28;19939;-74
2022/07/29 09:24:41;;;;;;;5.30;1.90;;;;;;;17.39;69.46;100267.19;5115066;28;20258;-74
2022/07/29 09:27:12;;;;;;;6.95;2.08;;;;;;;17.59;68.52;100262.28;5115123;28;20466;-74
2022/07/29 09:29:38;;;;;;;4.97;2.67;;;;;;;17.40;69.22;100257.78;5114719;28;20386;-74
2022/07/29 09:32:09;;;;;;;5.03;1.90;;;;;;;16.94;71.98;100263.53;5115445;28;20032;-74
2022/07/29 09:34:34;;;;;;;6.55;2.28;;;;;;;16.73;74.41;100268.75;5114051;28;20077;-76
2022/07/29 09:36:59;;;;;;;;;;;;;;;16.78;75.18;100265.66;5115533;28;20115;-74
2022/07/29 09:39:37;;;;;;;5.15;1.92;;;;;;;16.92;77.18;100265.06;5114673;28;20011;-74
2022/07/29 09:42:04;;;;;;;6.65;2.10;;;;;;;16.98;77.15;100258.09;5114844;28;20351;-73
2022/07/29 09:44:48;;;;;;;4.78;2.10;;;;;;;16.82;74.83;100259.06;5113361;28;20459;-73
2022/07/29 09:47:14;;;;;;;4.30;2.10;;;;;;;16.77;75.38;100251.13;5114669;28;20141;-73
2022/07/29 09:49:52;;;;;;;4.10;2.00;;;;;;;16.78;75.34;100249.16;5114260;28;20031;-73
2022/07/29 09:52:18;;;;;;;4.13;2.20;;;;;;;16.71;74.36;100235.34;5114651;28;20027;-73
2022/07/29 09:54:44;;;;;;;5.28;2.55;;;;;;;16.76;74.98;100241.31;5114169;28;20039;-73
2022/07/29 09:57:23;;;;;;;4.25;1.92;;;;;;;16.65;74.88;100242.31;5114802;28;20043;-73
2022/07/29 10:00:05;;;;;;;4.78;1.92;;;;;;;16.72;76.09;100247.91;5114310;28;20034;-73
2022/07/29 10:02:33;;;;;;;5.82;2.70;;;;;;;16.83;74.93;100246.13;5114440;28;20039;-73
2022/07/29 10:05:00;;;;;;;4.15;2.35;;;;;;;17.10;74.75;100247.59;5115962;28;20023;-73
2022/07/29 10:07:27;;;;;;;11.20;2.33;;;;;;;17.04;73.56;100251.88;5115404;28;20424;-73
2022/07/29 10:09:57;;;;;;;8.15;2.33;;;;;;;17.02;73.54;100243.22;5114161;28;20093;-74
2022/07/29 10:12:23;;;;;;;6.00;2.20;;;;;;;17.07;72.92;100258.56;5113854;28;20463;-73
2022/07/29 10:14:50;;;;;;;4.82;2.50;;;;;;;17.04;73.14;100251.88;5113976;28;20032;-73
2022/07/29 10:17:18;;;;;;;7.35;2.50;;;;;;;16.99;72.92;100252.22;5113990;28;20040;-73
2022/07/29 10:19:43;;;;;;;6.03;2.08;;;;;;;17.17;74.27;100254.38;5112231;28;20051;-73
2022/07/29 10:22:10;;;;;;;4.93;2.30;;;;;;;17.34;73.19;100245.53;5113537;28;20440;-73
2022/07/29 10:24:37;;;;;;;5.55;2.88;;;;;;;17.49;72.36;100250.03;5112359;28;20039;-73
2022/07/29 10:27:05;;;;;;;5.07;2.30;;;;;;;17.47;70.89;100246.84;5113790;28;20028;-73
2022/07/29 10:29:31;;;;;;;5.05;2.10;;;;;;;17.56;70.67;100243.78;5113458;28;20039;-73
2022/07/29 10:32:08;;;;;;;5.88;2.25;;;;;;;17.47;69.40;100240.53;5113343;28;20028;-74
2022/07/29 10:35:08;;;;;;;7.32;3.00;;;;;;;17.53;70.55;100247.28;5113941;28;20042;-74
2022/07/29 10:37:45;;;;;;;8.80;2.92;;;;;;;17.57;71.07;100245.34;5113519;28;20031;-74
2022/07/29 10:43:37;;;;;;;5.80;2.58;;;;;;;17.61;69.99;100251.69;5113628;28;20046;-75
2022/07/29 10:46:04;;;;;;;5.77;2.70;;;;;;;17.70;69.99;100250.25;5104667;28;20067;-75
2022/07/29 10:48:29;;;;;;;5.57;2.60;;;;;;;17.70;69.51;100244.75;5112141;28;20383;-75
2022/07/29 10:51:03;;;;;;;;;;;;;;;17.74;69.93;100245.56;5113902;28;20041;-75
2022/07/29 10:54:05;;;;;;;6.40;2.53;;;;;;;17.90;70.60;100248.06;5113128;28;19908;-75
2022/07/29 10:56:35;;;;;;;8.13;2.90;;;;;;;17.96;69.26;100257.53;5090106;28;20063;-75
2022/07/29 10:59:19;;;;;;;6.05;3.08;;;;;;;18.07;70.32;100252.13;5113114;28;20034;-75
2022/07/29 11:01:46;;;;;;;5.20;2.80;;;;;;;18.15;69.15;100256.53;5113244;28;20522;-75
2022/07/29 11:04:11;;;;;;;9.52;3.92;;;;;;;18.18;69.06;100246.72;5112896;28;20024;-75
2022/07/29 11:06:55;;;;;;;;;;;;;;;18.31;69.51;100248.00;5113596;28;20042;-75
2022/07/29 11:09:22;;;;;;;6.10;2.80;;;;;;;18.23;67.87;100249.88;5113086;28;20366;-75
2022/07/29 11:11:47;;;;;;;5.15;2.67;;;;;;;18.31;68.81;100251.53;5113789;28;20141;-75
2022/07/29 11:14:16;;;;;;;;;;;;;;;18.34;68.46;100261.00;5113876;28;20124;-75
2022/07/29 11:17:03;;;;;;;4.43;2.08;;;;;;;18.39;68.45;100257.09;5112784;28;20250;-75
2022/07/29 11:19:29;;;;;;;6.97;2.38;;;;;;;18.48;68.38;100261.09;5113102;28;20051;-75
2022/07/29 11:21:54;;;;;;;;;;;;;;;18.42;67.15;100261.81;5113346;28;20467;-74
2022/07/29 11:24:27;;;;;;;5.50;3.10;;;;;;;18.56;68.13;100256.41;5113036;28;19916;-75
2022/07/29 11:27:20;;;;;;;8.02;2.47;;;;;;;18.77;65.56;100261.28;5112788;28;20389;-75
2022/07/29 11:29:54;;;;;;;4.13;2.00;;;;;;;18.72;64.62;100258.88;5113463;28;20042;-75
2022/07/29 11:32:20;;;;;;;7.72;2.38;;;;;;;18.87;63.38;100258.56;5113321;28;20035;-75
2022/07/29 11:34:47;;;;;;;3.80;1.85;;;;;;;19.33;63.58;100254.41;5113059;28;20032;-73
2022/07/29 11:37:14;;;;;;;7.53;2.13;;;;;;;19.54;62.09;100257.25;5111701;28;20160;-75
2022/07/29 11:39:54;;;;;;;6.57;2.83;;;;;;;19.60;61.80;100269.47;5112955;28;20451;-75
2022/07/29 11:42:19;;;;;;;4.05;1.63;;;;;;;19.47;58.52;100271.78;5112895;28;20020;-74
2022/07/29 11:45:02;;;;;;;3.43;1.67;;;;;;;19.66;59.43;100264.38;5112901;28;20363;-75
2022/07/29 11:47:28;;;;;;;5.65;1.92;;;;;;;19.74;59.75;100265.94;5112997;28;20661;-75